sensor_id;sensor_type;location;lat;lon;timestamp;P1;durP1;ratioP1;P2;durP2;ratioP2
57577;SDS011;43413;-33.790;150.826;2022-11-04T00:33:42;8.32;;;1.45;;
57577;SDS011;43413;-33.790;150.826;2022-11-04T00:36:09;9.05;;;1.40;;
57577;SDS011;43413;-33.790;150.826;2022-11-04T00:38:36;5.82;;;1.58;;
57577;SDS011;43413;-33.790;150.826;2022-11-04T00:41:04;8.23;;;1.75;;
57577;SDS011;43413;-33.790;150.826;2022-11-04T00:43:59;7.72;;;1.55;;
57577;SDS011;43413;-33.790;150.826;2022-11-04T00:46:28;8.88;;;1.50;;
57577;SDS011;43413;-33.790;150.826;2022-11-04T00:48:55;12.90;;;2.20;;
57577;SDS011;43413;-33.790;150.826;2022-11-04T00:51:22;8.63;;;1.45;;
57577;SDS011;43413;-33.790;150.826;2022-11-04T00:53:49;6.20;;;1.40;;
57577;SDS011;43413;-33.790;150.826;2022-11-04T00:56:16;7.97;;;1.65;;
57577;SDS011;43413;-33.790;150.826;2022-11-04T00:58:44;7.57;;;1.88;;
57577;SDS011;43413;-33.790;150.826;2022-11-04T01:01:12;6.60;;;1.60;;
57577;SDS011;43413;-33.790;150.826;2022-11-04T01:03:43;11.38;;;1.77;;
57577;SDS011;43413;-33.790;150.826;2022-11-04T01:06:10;10.05;;;1.80;;
57577;SDS011;43413;-33.790;150.826;2022-11-04T01:08:38;9.32;;;1.80;;
57577;SDS011;43413;-33.790;150.826;2022-11-04T01:11:08;7.13;;;1.70;;
57577;SDS011;43413;-33.790;150.826;2022-11-04T01:13:36;6.88;;;1.75;;
57577;SDS011;43413;-33.790;150.826;2022-11-04T01:16:04;7.35;;;1.58;;
57577;SDS011;43413;-33.790;150.826;2022-11-04T01:18:32;8.05;;;1.63;;
57577;SDS011;43413;-33.790;150.826;2022-11-04T01:21:00;5.20;;;1.60;;
57577;SDS011;43413;-33.790;150.826;2022-11-04T01:23:27;7.68;;;1.73;;
57577;SDS011;43413;-33.790;150.826;2022-11-04T01:25:54;4.50;;;1.17;;
57577;SDS011;43413;-33.790;150.826;2022-11-04T01:28:21;10.65;;;1.77;;
57577;SDS011;43413;-33.790;150.826;2022-11-04T01:30:48;6.60;;;1.52;;
57577;SDS011;43413;-33.790;150.826;2022-11-04T01:33:16;6.40;;;1.73;;
57577;SDS011;43413;-33.790;150.826;2022-11-04T01:35:43;4.97;;;1.38;;
57577;SDS011;43413;-33.790;150.826;2022-11-04T01:38:10;7.10;;;1.35;;
57577;SDS011;43413;-33.790;150.826;2022-11-04T01:40:37;9.75;;;1.83;;
57577;SDS011;43413;-33.790;150.826;2022-11-04T01:43:11;7.22;;;1.58;;
57577;SDS011;43413;-33.790;150.826;2022-11-04T01:45:41;6.63;;;1.60;;
57577;SDS011;43413;-33.790;150.826;2022-11-04T01:48:17;6.63;;;1.73;;
57577;SDS011;43413;-33.790;150.826;2022-11-04T01:50:46;5.82;;;1.20;;
57577;SDS011;43413;-33.790;150.826;2022-11-04T01:53:15;5.15;;;1.35;;
57577;SDS011;43413;-33.790;150.826;2022-11-04T01:55:45;9.50;;;2.20;;
57577;SDS011;43413;-33.790;150.826;2022-11-04T01:58:19;6.93;;;1.77;;
57577;SDS011;43413;-33.790;150.826;2022-11-04T02:00:52;7.20;;;1.52;;
57577;SDS011;43413;-33.790;150.826;2022-11-04T02:03:19;5.25;;;1.42;;
57577;SDS011;43413;-33.790;150.826;2022-11-04T02:05:49;7.93;;;1.52;;
57577;SDS011;43413;-33.790;150.826;2022-11-04T02:08:17;9.27;;;1.73;;
57577;SDS011;43413;-33.790;150.826;2022-11-04T02:10:51;4.78;;;1.20;;
57577;SDS011;43413;-33.790;150.826;2022-11-04T02:13:20;6.70;;;1.38;;
57577;SDS011;43413;-33.790;150.826;2022-11-04T02:15:56;5.28;;;1.35;;
57577;SDS011;43413;-33.790;150.826;2022-11-04T02:18:31;8.20;;;1.50;;
57577;SDS011;43413;-33.790;150.826;2022-11-04T02:37:25;5.90;;;1.27;;
57577;SDS011;43413;-33.790;150.826;2022-11-04T02:39:55;3.55;;;1.02;;
57577;SDS011;43413;-33.790;150.826;2022-11-04T02:42:33;6.63;;;1.08;;
57577;SDS011;43413;-33.790;150.826;2022-11-04T02:45:14;4.20;;;1.10;;
57577;SDS011;43413;-33.790;150.826;2022-11-04T02:47:44;5.20;;;0.90;;
57577;SDS011;43413;-33.790;150.826;2022-11-04T02:50:13;4.40;;;0.88;;
57577;SDS011;43413;-33.790;150.826;2022-11-04T02:55:37;6.20;;;1.00;;
57577;SDS011;43413;-33.790;150.826;2022-11-04T02:58:01;3.95;;;1.23;;
57577;SDS011;43413;-33.790;150.826;2022-11-04T03:00:31;4.43;;;1.42;;
57577;SDS011;43413;-33.790;150.826;2022-11-04T03:03:04;3.92;;;0.88;;
57577;SDS011;43413;-33.790;150.826;2022-11-04T03:05:34;6.75;;;1.40;;
57577;SDS011;43413;-33.790;150.826;2022-11-04T03:08:10;5.75;;;1.05;;
57577;SDS011;43413;-33.790;150.826;2022-11-04T03:10:42;5.55;;;1.00;;
57577;SDS011;43413;-33.790;150.826;2022-11-04T03:13:12;8.20;;;1.17;;
57577;SDS011;43413;-33.790;150.826;2022-11-04T03:15:41;3.55;;;1.00;;
57577;SDS011;43413;-33.790;150.826;2022-11-04T03:18:22;4.82;;;1.15;;
57577;SDS011;43413;-33.790;150.826;2022-11-04T03:20:52;5.50;;;1.42;;
57577;SDS011;43413;-33.790;150.826;2022-11-04T03:23:22;4.25;;;1.08;;
57577;SDS011;43413;-33.790;150.826;2022-11-04T03:25:53;4.95;;;1.38;;
57577;SDS011;43413;-33.790;150.826;2022-11-04T03:30:55;5.43;;;1.10;;
57577;SDS011;43413;-33.790;150.826;2022-11-04T03:33:40;5.43;;;1.30;;
57577;SDS011;43413;-33.790;150.826;2022-11-04T03:36:08;4.82;;;1.17;;
57577;SDS011;43413;-33.790;150.826;2022-11-04T03:38:36;4.65;;;1.27;;
57577;SDS011;43413;-33.790;150.826;2022-11-04T03:41:08;3.80;;;1.15;;
57577;SDS011;43413;-33.790;150.826;2022-11-04T03:43:36;5.07;;;1.20;;
57577;SDS011;43413;-33.790;150.826;2022-11-04T03:46:03;6.18;;;1.10;;
57577;SDS011;43413;-33.790;150.826;2022-11-04T03:48:30;4.13;;;1.08;;
57577;SDS011;43413;-33.790;150.826;2022-11-04T03:50:57;6.03;;;1.10;;
57577;SDS011;43413;-33.790;150.826;2022-11-04T03:53:25;4.30;;;1.00;;
57577;SDS011;43413;-33.790;150.826;2022-11-04T03:56:02;4.63;;;0.90;;
57577;SDS011;43413;-33.790;150.826;2022-11-04T04:01:23;4.32;;;1.30;;
57577;SDS011;43413;-33.790;150.826;2022-11-04T04:03:47;8.80;;;1.52;;
57577;SDS011;43413;-33.790;150.826;2022-11-04T04:06:18;6.07;;;1.20;;
57577;SDS011;43413;-33.790;150.826;2022-11-04T04:08:47;6.20;;;1.35;;
57577;SDS011;43413;-33.790;150.826;2022-11-04T04:11:28;9.40;;;1.45;;
57577;SDS011;43413;-33.790;150.826;2022-11-04T04:14:14;6.38;;;1.30;;
57577;SDS011;43413;-33.790;150.826;2022-11-04T04:17:04;3.67;;;1.00;;
57577;SDS011;43413;-33.790;150.826;2022-11-04T04:19:32;5.28;;;1.00;;
57577;SDS011;43413;-33.790;150.826;2022-11-04T04:22:04;5.32;;;1.25;;
57577;SDS011;43413;-33.790;150.826;2022-11-04T04:24:34;10.93;;;1.80;;
57577;SDS011;43413;-33.790;150.826;2022-11-04T04:27:20;5.70;;;1.35;;
57577;SDS011;43413;-33.790;150.826;2022-11-04T04:29:59;7.82;;;1.48;;
57577;SDS011;43413;-33.790;150.826;2022-11-04T04:32:27;5.45;;;1.50;;
57577;SDS011;43413;-33.790;150.826;2022-11-04T04:34:55;6.53;;;1.55;;
57577;SDS011;43413;-33.790;150.826;2022-11-04T04:37:42;6.38;;;1.30;;
57577;SDS011;43413;-33.790;150.826;2022-11-04T04:40:14;6.63;;;1.35;;
57577;SDS011;43413;-33.790;150.826;2022-11-04T04:43:00;9.35;;;1.73;;
57577;SDS011;43413;-33.790;150.826;2022-11-04T04:45:50;7.25;;;1.35;;
57577;SDS011;43413;-33.790;150.826;2022-11-04T04:48:21;6.05;;;1.40;;
57577;SDS011;43413;-33.790;150.826;2022-11-04T04:50:51;7.50;;;1.60;;
57577;SDS011;43413;-33.790;150.826;2022-11-04T04:53:21;5.75;;;1.38;;
57577;SDS011;43413;-33.790;150.826;2022-11-04T04:55:49;7.00;;;1.30;;
57577;SDS011;43413;-33.790;150.826;2022-11-04T04:58:16;7.07;;;1.60;;
57577;SDS011;43413;-33.790;150.826;2022-11-04T05:00:43;7.85;;;1.73;;
57577;SDS011;43413;-33.790;150.826;2022-11-04T05:03:10;10.50;;;1.85;;
57577;SDS011;43413;-33.790;150.826;2022-11-04T05:05:37;4.93;;;1.38;;
57577;SDS011;43413;-33.790;150.826;2022-11-04T05:08:07;5.18;;;1.30;;
57577;SDS011;43413;-33.790;150.826;2022-11-04T05:10:35;4.35;;;1.50;;
57577;SDS011;43413;-33.790;150.826;2022-11-04T05:13:02;9.25;;;1.90;;
57577;SDS011;43413;-33.790;150.826;2022-11-04T05:15:47;7.85;;;2.00;;
57577;SDS011;43413;-33.790;150.826;2022-11-04T05:18:14;6.30;;;1.70;;
57577;SDS011;43413;-33.790;150.826;2022-11-04T05:20:41;9.65;;;2.10;;
57577;SDS011;43413;-33.790;150.826;2022-11-04T05:23:09;8.63;;;1.85;;
57577;SDS011;43413;-33.790;150.826;2022-11-04T05:25:37;6.95;;;1.55;;
57577;SDS011;43413;-33.790;150.826;2022-11-04T05:28:10;5.82;;;1.70;;
57577;SDS011;43413;-33.790;150.826;2022-11-04T05:30:37;5.10;;;1.60;;
57577;SDS011;43413;-33.790;150.826;2022-11-04T05:33:14;6.55;;;2.00;;
57577;SDS011;43413;-33.790;150.826;2022-11-04T05:35:41;5.57;;;1.30;;
57577;SDS011;43413;-33.790;150.826;2022-11-04T05:38:08;6.47;;;1.60;;
57577;SDS011;43413;-33.790;150.826;2022-11-04T05:40:35;5.53;;;1.50;;
57577;SDS011;43413;-33.790;150.826;2022-11-04T05:43:03;6.35;;;2.40;;
57577;SDS011;43413;-33.790;150.826;2022-11-04T05:45:30;4.85;;;1.67;;
57577;SDS011;43413;-33.790;150.826;2022-11-04T05:47:58;4.85;;;1.60;;
57577;SDS011;43413;-33.790;150.826;2022-11-04T05:50:25;4.13;;;1.02;;
57577;SDS011;43413;-33.790;150.826;2022-11-04T05:52:52;7.50;;;1.20;;
57577;SDS011;43413;-33.790;150.826;2022-11-04T05:55:22;3.70;;;1.20;;
57577;SDS011;43413;-33.790;150.826;2022-11-04T05:57:59;4.65;;;1.30;;
57577;SDS011;43413;-33.790;150.826;2022-11-04T06:00:29;4.93;;;1.45;;
57577;SDS011;43413;-33.790;150.826;2022-11-04T06:02:56;3.75;;;1.30;;
57577;SDS011;43413;-33.790;150.826;2022-11-04T06:05:24;5.40;;;1.27;;
57577;SDS011;43413;-33.790;150.826;2022-11-04T06:07:51;4.93;;;1.10;;
57577;SDS011;43413;-33.790;150.826;2022-11-04T06:10:18;4.43;;;1.20;;
57577;SDS011;43413;-33.790;150.826;2022-11-04T06:12:46;6.88;;;1.20;;
57577;SDS011;43413;-33.790;150.826;2022-11-04T06:15:13;3.40;;;1.10;;
57577;SDS011;43413;-33.790;150.826;2022-11-04T06:17:40;3.95;;;1.23;;
57577;SDS011;43413;-33.790;150.826;2022-11-04T06:20:10;7.38;;;1.25;;
57577;SDS011;43413;-33.790;150.826;2022-11-04T06:22:41;7.97;;;1.52;;
57577;SDS011;43413;-33.790;150.826;2022-11-04T06:25:08;5.65;;;1.30;;
57577;SDS011;43413;-33.790;150.826;2022-11-04T06:27:35;5.32;;;1.40;;
57577;SDS011;43413;-33.790;150.826;2022-11-04T06:30:03;10.38;;;1.98;;
57577;SDS011;43413;-33.790;150.826;2022-11-04T06:32:30;5.90;;;1.60;;
57577;SDS011;43413;-33.790;150.826;2022-11-04T06:34:57;7.20;;;1.80;;
57577;SDS011;43413;-33.790;150.826;2022-11-04T06:37:24;9.13;;;1.70;;
57577;SDS011;43413;-33.790;150.826;2022-11-04T06:39:51;6.10;;;1.70;;
57577;SDS011;43413;-33.790;150.826;2022-11-04T06:42:18;9.55;;;2.25;;
57577;SDS011;43413;-33.790;150.826;2022-11-04T06:44:45;6.28;;;1.23;;
57577;SDS011;43413;-33.790;150.826;2022-11-04T06:47:13;6.32;;;1.55;;
57577;SDS011;43413;-33.790;150.826;2022-11-04T06:49:40;6.00;;;1.55;;
57577;SDS011;43413;-33.790;150.826;2022-11-04T06:52:07;4.97;;;1.45;;
57577;SDS011;43413;-33.790;150.826;2022-11-04T06:54:34;9.90;;;1.60;;
57577;SDS011;43413;-33.790;150.826;2022-11-04T06:57:04;10.05;;;1.80;;
57577;SDS011;43413;-33.790;150.826;2022-11-04T06:59:32;3.85;;;1.17;;
57577;SDS011;43413;-33.790;150.826;2022-11-04T07:01:59;8.00;;;1.45;;
57577;SDS011;43413;-33.790;150.826;2022-11-04T07:04:26;7.28;;;1.52;;
57577;SDS011;43413;-33.790;150.826;2022-11-04T07:06:53;10.68;;;1.63;;
57577;SDS011;43413;-33.790;150.826;2022-11-04T07:09:20;5.07;;;1.20;;
57577;SDS011;43413;-33.790;150.826;2022-11-04T07:11:50;6.43;;;1.42;;
57577;SDS011;43413;-33.790;150.826;2022-11-04T07:14:20;5.53;;;1.50;;
57577;SDS011;43413;-33.790;150.826;2022-11-04T07:16:50;4.60;;;1.25;;
57577;SDS011;43413;-33.790;150.826;2022-11-04T07:19:17;5.60;;;1.55;;
57577;SDS011;43413;-33.790;150.826;2022-11-04T07:21:45;6.07;;;1.45;;
57577;SDS011;43413;-33.790;150.826;2022-11-04T07:24:15;11.88;;;2.15;;
57577;SDS011;43413;-33.790;150.826;2022-11-04T07:26:45;7.65;;;1.40;;
57577;SDS011;43413;-33.790;150.826;2022-11-04T07:29:12;5.10;;;1.55;;
57577;SDS011;43413;-33.790;150.826;2022-11-04T07:31:43;6.47;;;1.73;;
57577;SDS011;43413;-33.790;150.826;2022-11-04T07:34:10;6.68;;;1.30;;
57577;SDS011;43413;-33.790;150.826;2022-11-04T07:36:37;8.60;;;2.08;;
57577;SDS011;43413;-33.790;150.826;2022-11-04T07:39:04;6.20;;;1.70;;
57577;SDS011;43413;-33.790;150.826;2022-11-04T07:41:31;7.50;;;1.40;;
57577;SDS011;43413;-33.790;150.826;2022-11-04T07:43:58;6.55;;;1.90;;
57577;SDS011;43413;-33.790;150.826;2022-11-04T07:46:30;5.57;;;1.45;;
57577;SDS011;43413;-33.790;150.826;2022-11-04T07:48:57;9.80;;;1.98;;
57577;SDS011;43413;-33.790;150.826;2022-11-04T07:51:25;7.95;;;1.70;;
57577;SDS011;43413;-33.790;150.826;2022-11-04T07:53:54;9.70;;;2.47;;
57577;SDS011;43413;-33.790;150.826;2022-11-04T07:56:21;6.30;;;1.50;;
57577;SDS011;43413;-33.790;150.826;2022-11-04T07:58:49;6.50;;;1.75;;
57577;SDS011;43413;-33.790;150.826;2022-11-04T08:01:18;5.68;;;1.30;;
57577;SDS011;43413;-33.790;150.826;2022-11-04T08:03:45;4.35;;;1.30;;
57577;SDS011;43413;-33.790;150.826;2022-11-04T08:06:14;5.72;;;1.40;;
57577;SDS011;43413;-33.790;150.826;2022-11-04T08:08:42;7.78;;;1.60;;
57577;SDS011;43413;-33.790;150.826;2022-11-04T08:11:13;6.32;;;1.45;;
57577;SDS011;43413;-33.790;150.826;2022-11-04T08:13:41;6.78;;;1.67;;
57577;SDS011;43413;-33.790;150.826;2022-11-04T08:16:13;14.05;;;1.67;;
57577;SDS011;43413;-33.790;150.826;2022-11-04T08:18:41;7.25;;;1.92;;
57577;SDS011;43413;-33.790;150.826;2022-11-04T08:21:10;6.05;;;1.90;;
57577;SDS011;43413;-33.790;150.826;2022-11-04T08:23:37;7.30;;;1.58;;
57577;SDS011;43413;-33.790;150.826;2022-11-04T08:26:11;4.97;;;1.42;;
57577;SDS011;43413;-33.790;150.826;2022-11-04T08:28:39;7.30;;;1.80;;
57577;SDS011;43413;-33.790;150.826;2022-11-04T08:31:30;7.15;;;1.45;;
57577;SDS011;43413;-33.790;150.826;2022-11-04T08:33:56;10.05;;;2.03;;
57577;SDS011;43413;-33.790;150.826;2022-11-04T08:36:24;9.25;;;1.50;;
57577;SDS011;43413;-33.790;150.826;2022-11-04T08:38:52;4.60;;;1.50;;
57577;SDS011;43413;-33.790;150.826;2022-11-04T08:41:21;7.00;;;1.58;;
57577;SDS011;43413;-33.790;150.826;2022-11-04T08:43:52;8.65;;;1.70;;
57577;SDS011;43413;-33.790;150.826;2022-11-04T08:46:28;4.70;;;1.60;;
57577;SDS011;43413;-33.790;150.826;2022-11-04T08:48:57;8.00;;;1.65;;
57577;SDS011;43413;-33.790;150.826;2022-11-04T08:51:25;6.15;;;1.67;;
57577;SDS011;43413;-33.790;150.826;2022-11-04T08:53:52;7.00;;;1.63;;
57577;SDS011;43413;-33.790;150.826;2022-11-04T08:56:24;5.53;;;1.50;;
57577;SDS011;43413;-33.790;150.826;2022-11-04T08:58:52;10.40;;;1.65;;
57577;SDS011;43413;-33.790;150.826;2022-11-04T09:01:20;9.95;;;2.00;;
57577;SDS011;43413;-33.790;150.826;2022-11-04T09:03:47;8.15;;;1.70;;
57577;SDS011;43413;-33.790;150.826;2022-11-04T09:06:17;8.32;;;1.90;;
57577;SDS011;43413;-33.790;150.826;2022-11-04T09:08:44;8.38;;;1.90;;
57577;SDS011;43413;-33.790;150.826;2022-11-04T09:11:15;11.20;;;1.90;;
57577;SDS011;43413;-33.790;150.826;2022-11-04T09:13:43;10.98;;;1.92;;
57577;SDS011;43413;-33.790;150.826;2022-11-04T09:16:13;8.32;;;2.13;;
57577;SDS011;43413;-33.790;150.826;2022-11-04T09:18:40;7.93;;;2.22;;
57577;SDS011;43413;-33.790;150.826;2022-11-04T09:21:08;9.05;;;2.03;;
57577;SDS011;43413;-33.790;150.826;2022-11-04T09:23:36;7.72;;;2.25;;
57577;SDS011;43413;-33.790;150.826;2022-11-04T09:26:07;8.15;;;2.10;;
57577;SDS011;43413;-33.790;150.826;2022-11-04T09:28:34;9.27;;;2.13;;
57577;SDS011;43413;-33.790;150.826;2022-11-04T09:31:06;12.70;;;2.00;;
57577;SDS011;43413;-33.790;150.826;2022-11-04T09:33:33;7.47;;;1.73;;
57577;SDS011;43413;-33.790;150.826;2022-11-04T09:36:00;9.18;;;2.05;;
57577;SDS011;43413;-33.790;150.826;2022-11-04T09:38:27;8.40;;;2.33;;
57577;SDS011;43413;-33.790;150.826;2022-11-04T09:40:58;10.88;;;2.58;;
57577;SDS011;43413;-33.790;150.826;2022-11-04T09:43:41;10.63;;;2.35;;
57577;SDS011;43413;-33.790;150.826;2022-11-04T09:46:12;10.02;;;2.30;;
57577;SDS011;43413;-33.790;150.826;2022-11-04T09:48:41;7.50;;;2.30;;
57577;SDS011;43413;-33.790;150.826;2022-11-04T09:51:10;6.63;;;2.15;;
57577;SDS011;43413;-33.790;150.826;2022-11-04T09:53:50;6.60;;;2.60;;
57577;SDS011;43413;-33.790;150.826;2022-11-04T09:56:19;7.38;;;2.20;;
57577;SDS011;43413;-33.790;150.826;2022-11-04T09:58:47;9.35;;;1.83;;
57577;SDS011;43413;-33.790;150.826;2022-11-04T10:06:23;11.15;;;2.30;;
57577;SDS011;43413;-33.790;150.826;2022-11-04T10:14:13;10.43;;;2.42;;
57577;SDS011;43413;-33.790;150.826;2022-11-04T10:22:32;7.93;;;2.08;;
57577;SDS011;43413;-33.790;150.826;2022-11-04T10:25:12;8.25;;;2.30;;
57577;SDS011;43413;-33.790;150.826;2022-11-04T10:27:41;11.43;;;3.03;;
57577;SDS011;43413;-33.790;150.826;2022-11-04T10:30:17;7.72;;;2.40;;
57577;SDS011;43413;-33.790;150.826;2022-11-04T10:35:34;7.82;;;2.38;;
57577;SDS011;43413;-33.790;150.826;2022-11-04T10:40:43;9.18;;;2.40;;
57577;SDS011;43413;-33.790;150.826;2022-11-04T10:43:12;7.10;;;2.05;;
57577;SDS011;43413;-33.790;150.826;2022-11-04T10:48:13;8.63;;;2.55;;
57577;SDS011;43413;-33.790;150.826;2022-11-04T10:53:23;9.52;;;2.30;;
57577;SDS011;43413;-33.790;150.826;2022-11-04T10:58:35;12.30;;;2.45;;
57577;SDS011;43413;-33.790;150.826;2022-11-04T11:03:50;10.18;;;2.22;;
57577;SDS011;43413;-33.790;150.826;2022-11-04T11:06:29;7.40;;;2.20;;
57577;SDS011;43413;-33.790;150.826;2022-11-04T11:09:17;7.93;;;2.10;;
57577;SDS011;43413;-33.790;150.826;2022-11-04T11:14:44;8.20;;;1.90;;
57577;SDS011;43413;-33.790;150.826;2022-11-04T11:19:57;7.65;;;2.25;;
57577;SDS011;43413;-33.790;150.826;2022-11-04T11:22:32;8.88;;;2.55;;
57577;SDS011;43413;-33.790;150.826;2022-11-04T11:25:42;9.68;;;2.53;;
57577;SDS011;43413;-33.790;150.826;2022-11-04T11:27:57;6.45;;;2.13;;
57577;SDS011;43413;-33.790;150.826;2022-11-04T11:30:29;9.52;;;2.50;;
57577;SDS011;43413;-33.790;150.826;2022-11-04T11:33:22;8.30;;;2.03;;
57577;SDS011;43413;-33.790;150.826;2022-11-04T11:35:55;8.90;;;2.42;;
57577;SDS011;43413;-33.790;150.826;2022-11-04T11:38:25;9.15;;;2.13;;
57577;SDS011;43413;-33.790;150.826;2022-11-04T11:41:04;8.05;;;2.40;;
57577;SDS011;43413;-33.790;150.826;2022-11-04T11:43:32;9.55;;;2.15;;
57577;SDS011;43413;-33.790;150.826;2022-11-04T11:46:03;8.40;;;2.10;;
57577;SDS011;43413;-33.790;150.826;2022-11-04T11:48:48;9.27;;;2.30;;
57577;SDS011;43413;-33.790;150.826;2022-11-04T11:51:23;6.43;;;1.73;;
57577;SDS011;43413;-33.790;150.826;2022-11-04T11:56:46;8.55;;;1.80;;
57577;SDS011;43413;-33.790;150.826;2022-11-04T11:59:36;7.45;;;1.95;;
57577;SDS011;43413;-33.790;150.826;2022-11-04T12:02:19;13.55;;;2.05;;
57577;SDS011;43413;-33.790;150.826;2022-11-04T12:04:48;6.93;;;1.83;;
57577;SDS011;43413;-33.790;150.826;2022-11-04T12:12:18;7.28;;;2.40;;
57577;SDS011;43413;-33.790;150.826;2022-11-04T12:14:58;9.63;;;2.17;;
57577;SDS011;43413;-33.790;150.826;2022-11-04T12:17:32;8.30;;;2.28;;
57577;SDS011;43413;-33.790;150.826;2022-11-04T12:22:46;7.75;;;1.98;;
57577;SDS011;43413;-33.790;150.826;2022-11-04T12:30:54;8.05;;;2.35;;
57577;SDS011;43413;-33.790;150.826;2022-11-04T12:33:31;8.38;;;2.63;;
57577;SDS011;43413;-33.790;150.826;2022-11-04T12:38:45;6.55;;;1.73;;
57577;SDS011;43413;-33.790;150.826;2022-11-04T12:47:06;10.43;;;2.38;;
57577;SDS011;43413;-33.790;150.826;2022-11-04T12:49:59;8.95;;;1.88;;
57577;SDS011;43413;-33.790;150.826;2022-11-04T12:54:59;9.75;;;2.17;;
57577;SDS011;43413;-33.790;150.826;2022-11-04T12:57:42;8.60;;;1.92;;
57577;SDS011;43413;-33.790;150.826;2022-11-04T13:00:12;6.47;;;1.70;;
57577;SDS011;43413;-33.790;150.826;2022-11-04T13:02:48;4.28;;;1.65;;
57577;SDS011;43413;-33.790;150.826;2022-11-04T13:10:44;7.93;;;1.98;;
57577;SDS011;43413;-33.790;150.826;2022-11-04T13:13:14;7.75;;;2.38;;
57577;SDS011;43413;-33.790;150.826;2022-11-04T13:15:46;6.75;;;1.60;;
57577;SDS011;43413;-33.790;150.826;2022-11-04T13:18:15;7.05;;;1.90;;
57577;SDS011;43413;-33.790;150.826;2022-11-04T13:23:19;4.93;;;1.67;;
57577;SDS011;43413;-33.790;150.826;2022-11-04T13:25:48;7.25;;;1.80;;
57577;SDS011;43413;-33.790;150.826;2022-11-04T13:28:18;7.05;;;1.42;;
57577;SDS011;43413;-33.790;150.826;2022-11-04T13:31:03;7.15;;;1.77;;
57577;SDS011;43413;-33.790;150.826;2022-11-04T13:36:20;7.30;;;1.73;;
57577;SDS011;43413;-33.790;150.826;2022-11-04T13:43:56;7.88;;;1.90;;
57577;SDS011;43413;-33.790;150.826;2022-11-04T13:46:25;7.57;;;2.03;;
57577;SDS011;43413;-33.790;150.826;2022-11-04T13:49:03;11.90;;;2.13;;
57577;SDS011;43413;-33.790;150.826;2022-11-04T13:51:38;6.90;;;1.83;;
57577;SDS011;43413;-33.790;150.826;2022-11-04T13:57:06;8.13;;;2.38;;
57577;SDS011;43413;-33.790;150.826;2022-11-04T13:59:34;7.45;;;2.13;;
57577;SDS011;43413;-33.790;150.826;2022-11-04T14:04:55;8.63;;;2.38;;
57577;SDS011;43413;-33.790;150.826;2022-11-04T14:08:06;8.73;;;2.20;;
57577;SDS011;43413;-33.790;150.826;2022-11-04T14:10:35;8.93;;;2.55;;
57577;SDS011;43413;-33.790;150.826;2022-11-04T14:13:19;5.97;;;2.22;;
57577;SDS011;43413;-33.790;150.826;2022-11-04T14:16:04;10.07;;;2.47;;
57577;SDS011;43413;-33.790;150.826;2022-11-04T14:18:34;9.48;;;3.03;;
57577;SDS011;43413;-33.790;150.826;2022-11-04T14:21:11;7.70;;;2.13;;
57577;SDS011;43413;-33.790;150.826;2022-11-04T14:23:40;8.98;;;2.15;;
57577;SDS011;43413;-33.790;150.826;2022-11-04T14:26:08;8.07;;;2.05;;
57577;SDS011;43413;-33.790;150.826;2022-11-04T14:28:36;10.20;;;2.38;;
57577;SDS011;43413;-33.790;150.826;2022-11-04T14:31:05;9.80;;;2.30;;
57577;SDS011;43413;-33.790;150.826;2022-11-04T14:33:48;8.82;;;2.20;;
57577;SDS011;43413;-33.790;150.826;2022-11-04T14:39:17;10.07;;;2.28;;
57577;SDS011;43413;-33.790;150.826;2022-11-04T14:44:50;11.18;;;2.60;;
57577;SDS011;43413;-33.790;150.826;2022-11-04T14:46:54;7.18;;;2.30;;
57577;SDS011;43413;-33.790;150.826;2022-11-04T14:49:27;7.40;;;2.00;;
57577;SDS011;43413;-33.790;150.826;2022-11-04T14:51:56;11.45;;;2.60;;
57577;SDS011;43413;-33.790;150.826;2022-11-04T14:54:24;10.88;;;2.25;;
57577;SDS011;43413;-33.790;150.826;2022-11-04T14:56:59;10.55;;;2.67;;
57577;SDS011;43413;-33.790;150.826;2022-11-04T14:59:32;7.53;;;2.88;;
57577;SDS011;43413;-33.790;150.826;2022-11-04T15:01:59;4.78;;;2.08;;
57577;SDS011;43413;-33.790;150.826;2022-11-04T15:04:27;9.52;;;2.58;;
57577;SDS011;43413;-33.790;150.826;2022-11-04T15:06:57;6.20;;;2.20;;
57577;SDS011;43413;-33.790;150.826;2022-11-04T15:09:37;7.07;;;2.47;;
57577;SDS011;43413;-33.790;150.826;2022-11-04T15:12:09;9.95;;;2.45;;
57577;SDS011;43413;-33.790;150.826;2022-11-04T15:14:56;11.48;;;2.55;;
57577;SDS011;43413;-33.790;150.826;2022-11-04T15:17:27;9.00;;;2.65;;
57577;SDS011;43413;-33.790;150.826;2022-11-04T15:19:56;7.85;;;2.50;;
57577;SDS011;43413;-33.790;150.826;2022-11-04T15:22:25;7.05;;;2.40;;
57577;SDS011;43413;-33.790;150.826;2022-11-04T15:24:53;7.78;;;2.40;;
57577;SDS011;43413;-33.790;150.826;2022-11-04T15:27:26;13.23;;;3.03;;
57577;SDS011;43413;-33.790;150.826;2022-11-04T15:29:55;7.47;;;2.70;;
57577;SDS011;43413;-33.790;150.826;2022-11-04T15:32:22;7.28;;;2.22;;
57577;SDS011;43413;-33.790;150.826;2022-11-04T15:34:50;10.63;;;2.40;;
57577;SDS011;43413;-33.790;150.826;2022-11-04T15:37:17;9.65;;;2.33;;
57577;SDS011;43413;-33.790;150.826;2022-11-04T15:39:47;7.47;;;1.92;;
57577;SDS011;43413;-33.790;150.826;2022-11-04T15:42:17;11.57;;;2.95;;
57577;SDS011;43413;-33.790;150.826;2022-11-04T15:48:05;8.43;;;2.90;;
57577;SDS011;43413;-33.790;150.826;2022-11-04T15:50:36;11.13;;;3.67;;
57577;SDS011;43413;-33.790;150.826;2022-11-04T15:53:03;9.10;;;2.70;;
57577;SDS011;43413;-33.790;150.826;2022-11-04T15:55:34;10.32;;;2.92;;
57577;SDS011;43413;-33.790;150.826;2022-11-04T15:58:03;11.15;;;2.80;;
57577;SDS011;43413;-33.790;150.826;2022-11-04T16:00:30;9.20;;;3.25;;
57577;SDS011;43413;-33.790;150.826;2022-11-04T16:02:58;10.73;;;2.78;;
57577;SDS011;43413;-33.790;150.826;2022-11-04T16:07:54;10.20;;;2.80;;
57577;SDS011;43413;-33.790;150.826;2022-11-04T16:10:28;10.50;;;2.40;;
57577;SDS011;43413;-33.790;150.826;2022-11-04T16:12:56;6.97;;;2.42;;
57577;SDS011;43413;-33.790;150.826;2022-11-04T16:15:43;12.98;;;3.58;;
57577;SDS011;43413;-33.790;150.826;2022-11-04T16:20:49;7.43;;;2.33;;
57577;SDS011;43413;-33.790;150.826;2022-11-04T16:23:18;7.25;;;2.60;;
57577;SDS011;43413;-33.790;150.826;2022-11-04T16:25:53;6.63;;;2.45;;
57577;SDS011;43413;-33.790;150.826;2022-11-04T16:28:22;10.15;;;2.90;;
57577;SDS011;43413;-33.790;150.826;2022-11-04T16:30:59;12.85;;;3.80;;
57577;SDS011;43413;-33.790;150.826;2022-11-04T16:33:26;11.52;;;2.70;;
57577;SDS011;43413;-33.790;150.826;2022-11-04T16:35:53;11.27;;;3.78;;
57577;SDS011;43413;-33.790;150.826;2022-11-04T16:38:20;10.52;;;3.00;;
57577;SDS011;43413;-33.790;150.826;2022-11-04T16:40:48;14.40;;;2.92;;
57577;SDS011;43413;-33.790;150.826;2022-11-04T16:43:19;10.88;;;2.70;;
57577;SDS011;43413;-33.790;150.826;2022-11-04T16:45:47;11.15;;;3.00;;
57577;SDS011;43413;-33.790;150.826;2022-11-04T16:48:16;11.45;;;2.85;;
57577;SDS011;43413;-33.790;150.826;2022-11-04T16:50:43;13.13;;;3.40;;
57577;SDS011;43413;-33.790;150.826;2022-11-04T16:53:11;13.80;;;3.33;;
57577;SDS011;43413;-33.790;150.826;2022-11-04T16:55:39;13.15;;;3.10;;
57577;SDS011;43413;-33.790;150.826;2022-11-04T16:58:09;12.20;;;3.10;;
57577;SDS011;43413;-33.790;150.826;2022-11-04T17:00:38;12.73;;;3.10;;
57577;SDS011;43413;-33.790;150.826;2022-11-04T17:03:11;10.57;;;2.83;;
57577;SDS011;43413;-33.790;150.826;2022-11-04T17:05:49;8.07;;;2.78;;